sensor_id;sensor_type;location;lat;lon;timestamp;temperature;humidity
12156;DHT22;6141;49.092;8.516;2022-12-29T00:01:17;13.30;40.00
12156;DHT22;6141;49.092;8.516;2022-12-29T00:03:45;13.20;40.80
12156;DHT22;6141;49.092;8.516;2022-12-29T00:06:14;13.20;41.00
12156;DHT22;6141;49.092;8.516;2022-12-29T00:08:42;13.10;42.30
12156;DHT22;6141;49.092;8.516;2022-12-29T00:11:12;13.10;41.30
12156;DHT22;6141;49.092;8.516;2022-12-29T00:13:43;13.20;41.10
12156;DHT22;6141;49.092;8.516;2022-12-29T00:16:31;13.20;41.10
12156;DHT22;6141;49.092;8.516;2022-12-29T00:19:00;13.20;41.20
12156;DHT22;6141;49.092;8.516;2022-12-29T00:21:28;13.10;41.00
12156;DHT22;6141;49.092;8.516;2022-12-29T00:24:19;13.10;41.10
12156;DHT22;6141;49.092;8.516;2022-12-29T00:27:12;13.10;41.50
12156;DHT22;6141;49.092;8.516;2022-12-29T00:30:00;13.20;41.60
12156;DHT22;6141;49.092;8.516;2022-12-29T00:32:46;13.20;41.60
12156;DHT22;6141;49.092;8.516;2022-12-29T00:35:34;13.20;41.60
12156;DHT22;6141;49.092;8.516;2022-12-29T00:38:05;13.30;41.20
12156;DHT22;6141;49.092;8.516;2022-12-29T00:40:53;13.30;41.20
12156;DHT22;6141;49.092;8.516;2022-12-29T00:43:38;13.30;41.70
12156;DHT22;6141;49.092;8.516;2022-12-29T00:46:26;13.40;41.10
12156;DHT22;6141;49.092;8.516;2022-12-29T00:48:54;13.40;41.10
12156;DHT22;6141;49.092;8.516;2022-12-29T00:51:40;13.40;41.10
12156;DHT22;6141;49.092;8.516;2022-12-29T00:54:09;13.40;41.20
12156;DHT22;6141;49.092;8.516;2022-12-29T00:56:37;13.40;41.40
12156;DHT22;6141;49.092;8.516;2022-12-29T00:59:08;13.40;41.50
12156;DHT22;6141;49.092;8.516;2022-12-29T01:01:39;13.30;41.80
12156;DHT22;6141;49.092;8.516;2022-12-29T01:04:08;13.30;42.40
12156;DHT22;6141;49.092;8.516;2022-12-29T01:06:37;13.30;43.20
12156;DHT22;6141;49.092;8.516;2022-12-29T01:09:08;13.20;44.00
12156;DHT22;6141;49.092;8.516;2022-12-29T01:11:55;13.10;45.80
12156;DHT22;6141;49.092;8.516;2022-12-29T01:14:23;12.90;45.70
12156;DHT22;6141;49.092;8.516;2022-12-29T01:16:54;12.90;45.70
12156;DHT22;6141;49.092;8.516;2022-12-29T01:19:24;12.90;46.00
12156;DHT22;6141;49.092;8.516;2022-12-29T01:21:55;12.80;46.60
12156;DHT22;6141;49.092;8.516;2022-12-29T01:24:23;12.80;46.80
12156;DHT22;6141;49.092;8.516;2022-12-29T01:26:53;12.90;47.40
12156;DHT22;6141;49.092;8.516;2022-12-29T01:29:33;12.90;47.60
12156;DHT22;6141;49.092;8.516;2022-12-29T01:32:06;12.90;47.60
12156;DHT22;6141;49.092;8.516;2022-12-29T01:34:34;12.90;47.60
12156;DHT22;6141;49.092;8.516;2022-12-29T01:37:03;12.80;47.50
12156;DHT22;6141;49.092;8.516;2022-12-29T01:39:31;12.80;47.50
12156;DHT22;6141;49.092;8.516;2022-12-29T01:42:00;12.90;47.60
12156;DHT22;6141;49.092;8.516;2022-12-29T01:44:52;12.90;47.00
12156;DHT22;6141;49.092;8.516;2022-12-29T01:47:36;13.00;46.40
12156;DHT22;6141;49.092;8.516;2022-12-29T01:50:09;13.10;46.20
12156;DHT22;6141;49.092;8.516;2022-12-29T01:52:41;13.10;45.80
12156;DHT22;6141;49.092;8.516;2022-12-29T01:55:11;13.00;45.60
12156;DHT22;6141;49.092;8.516;2022-12-29T01:57:42;13.10;45.70
12156;DHT22;6141;49.092;8.516;2022-12-29T02:00:14;13.10;46.30
12156;DHT22;6141;49.092;8.516;2022-12-29T02:02:50;13.00;46.00
12156;DHT22;6141;49.092;8.516;2022-12-29T02:05:24;13.00;46.10
12156;DHT22;6141;49.092;8.516;2022-12-29T02:07:55;13.00;46.00
12156;DHT22;6141;49.092;8.516;2022-12-29T02:10:25;12.90;46.00
12156;DHT22;6141;49.092;8.516;2022-12-29T02:12:56;12.90;45.90
12156;DHT22;6141;49.092;8.516;2022-12-29T02:15:31;12.90;46.40
12156;DHT22;6141;49.092;8.516;2022-12-29T02:18:19;12.90;46.00
12156;DHT22;6141;49.092;8.516;2022-12-29T02:24:11;12.80;46.60
12156;DHT22;6141;49.092;8.516;2022-12-29T02:30:12;12.70;47.40
12156;DHT22;6141;49.092;8.516;2022-12-29T02:32:50;12.60;47.30
12156;DHT22;6141;49.092;8.516;2022-12-29T02:35:28;12.60;47.30
12156;DHT22;6141;49.092;8.516;2022-12-29T02:38:07;12.70;47.40
12156;DHT22;6141;49.092;8.516;2022-12-29T02:40:40;12.70;47.40
12156;DHT22;6141;49.092;8.516;2022-12-29T02:43:19;12.70;47.40
12156;DHT22;6141;49.092;8.516;2022-12-29T02:45:54;12.90;46.80
12156;DHT22;6141;49.092;8.516;2022-12-29T02:48:29;12.80;46.40
12156;DHT22;6141;49.092;8.516;2022-12-29T02:51:01;12.90;46.80
12156;DHT22;6141;49.092;8.516;2022-12-29T02:53:32;12.90;46.40
12156;DHT22;6141;49.092;8.516;2022-12-29T02:56:19;12.80;46.30
12156;DHT22;6141;49.092;8.516;2022-12-29T02:58:47;12.90;47.60
12156;DHT22;6141;49.092;8.516;2022-12-29T03:01:27;13.00;47.70
12156;DHT22;6141;49.092;8.516;2022-12-29T03:04:18;12.90;48.60
12156;DHT22;6141;49.092;8.516;2022-12-29T03:06:54;13.10;47.80
12156;DHT22;6141;49.092;8.516;2022-12-29T03:09:31;13.10;47.90
12156;DHT22;6141;49.092;8.516;2022-12-29T03:12:14;13.20;47.90
12156;DHT22;6141;49.092;8.516;2022-12-29T03:14:52;13.30;48.00
12156;DHT22;6141;49.092;8.516;2022-12-29T03:17:48;13.30;48.00
12156;DHT22;6141;49.092;8.516;2022-12-29T03:20:23;13.20;47.00
12156;DHT22;6141;49.092;8.516;2022-12-29T03:22:59;12.90;47.60
12156;DHT22;6141;49.092;8.516;2022-12-29T03:25:33;12.80;47.50
12156;DHT22;6141;49.092;8.516;2022-12-29T03:28:10;12.70;47.60
12156;DHT22;6141;49.092;8.516;2022-12-29T03:30:43;12.60;47.80
12156;DHT22;6141;49.092;8.516;2022-12-29T03:33:18;12.60;48.00
12156;DHT22;6141;49.092;8.516;2022-12-29T03:35:51;12.50;49.00
12156;DHT22;6141;49.092;8.516;2022-12-29T03:38:25;12.60;48.60
12156;DHT22;6141;49.092;8.516;2022-12-29T03:40:58;12.60;47.90
12156;DHT22;6141;49.092;8.516;2022-12-29T03:43:30;12.60;47.30
12156;DHT22;6141;49.092;8.516;2022-12-29T03:45:59;12.60;47.30
12156;DHT22;6141;49.092;8.516;2022-12-29T03:48:27;12.60;47.30
12156;DHT22;6141;49.092;8.516;2022-12-29T03:50:57;12.60;47.70
12156;DHT22;6141;49.092;8.516;2022-12-29T03:53:27;12.50;47.10
12156;DHT22;6141;49.092;8.516;2022-12-29T03:55:55;12.40;47.10
12156;DHT22;6141;49.092;8.516;2022-12-29T03:58:24;12.50;47.10
12156;DHT22;6141;49.092;8.516;2022-12-29T04:01:05;12.40;47.10
12156;DHT22;6141;49.092;8.516;2022-12-29T04:03:36;12.40;47.10
12156;DHT22;6141;49.092;8.516;2022-12-29T04:06:06;12.30;46.90
12156;DHT22;6141;49.092;8.516;2022-12-29T04:08:42;12.30;46.90
12156;DHT22;6141;49.092;8.516;2022-12-29T04:11:11;12.20;46.80
12156;DHT22;6141;49.092;8.516;2022-12-29T04:13:41;12.20;46.80
12156;DHT22;6141;49.092;8.516;2022-12-29T04:16:14;12.20;46.80
12156;DHT22;6141;49.092;8.516;2022-12-29T04:18:43;12.20;46.80
12156;DHT22;6141;49.092;8.516;2022-12-29T04:21:13;12.10;46.70
12156;DHT22;6141;49.092;8.516;2022-12-29T04:23:44;12.20;46.80
12156;DHT22;6141;49.092;8.516;2022-12-29T04:26:13;12.30;46.90
12156;DHT22;6141;49.092;8.516;2022-12-29T04:28:54;12.30;46.90
12156;DHT22;6141;49.092;8.516;2022-12-29T04:31:54;12.30;46.50
12156;DHT22;6141;49.092;8.516;2022-12-29T04:34:23;12.40;47.10
12156;DHT22;6141;49.092;8.516;2022-12-29T04:36:52;12.40;47.10
12156;DHT22;6141;49.092;8.516;2022-12-29T04:39:21;12.30;46.90
12156;DHT22;6141;49.092;8.516;2022-12-29T04:41:49;12.30;46.60
12156;DHT22;6141;49.092;8.516;2022-12-29T04:44:20;12.40;45.40
12156;DHT22;6141;49.092;8.516;2022-12-29T04:47:10;12.40;45.80
12156;DHT22;6141;49.092;8.516;2022-12-29T04:49:56;12.40;45.80
12156;DHT22;6141;49.092;8.516;2022-12-29T04:52:39;12.40;45.70
12156;DHT22;6141;49.092;8.516;2022-12-29T04:55:09;12.40;46.00
12156;DHT22;6141;49.092;8.516;2022-12-29T04:57:39;12.40;46.00
12156;DHT22;6141;49.092;8.516;2022-12-29T05:00:10;12.50;45.70
12156;DHT22;6141;49.092;8.516;2022-12-29T05:02:39;12.60;45.80
12156;DHT22;6141;49.092;8.516;2022-12-29T05:05:08;12.60;46.00
12156;DHT22;6141;49.092;8.516;2022-12-29T05:07:42;12.60;45.90
12156;DHT22;6141;49.092;8.516;2022-12-29T05:10:11;12.60;45.70
12156;DHT22;6141;49.092;8.516;2022-12-29T05:12:40;12.70;45.60
12156;DHT22;6141;49.092;8.516;2022-12-29T05:15:09;12.70;45.60
12156;DHT22;6141;49.092;8.516;2022-12-29T05:17:38;12.80;44.90
12156;DHT22;6141;49.092;8.516;2022-12-29T05:20:08;12.80;45.00
12156;DHT22;6141;49.092;8.516;2022-12-29T05:22:37;12.90;45.20
12156;DHT22;6141;49.092;8.516;2022-12-29T05:25:08;12.80;45.40
12156;DHT22;6141;49.092;8.516;2022-12-29T05:27:51;12.80;45.70
12156;DHT22;6141;49.092;8.516;2022-12-29T05:30:38;12.80;46.20
12156;DHT22;6141;49.092;8.516;2022-12-29T05:33:06;12.80;45.80
12156;DHT22;6141;49.092;8.516;2022-12-29T05:35:39;12.80;45.70
12156;DHT22;6141;49.092;8.516;2022-12-29T05:38:07;12.80;45.80
12156;DHT22;6141;49.092;8.516;2022-12-29T05:40:38;12.80;45.70
12156;DHT22;6141;49.092;8.516;2022-12-29T05:43:19;12.80;46.10
12156;DHT22;6141;49.092;8.516;2022-12-29T05:46:19;12.80;45.30
12156;DHT22;6141;49.092;8.516;2022-12-29T05:49:06;12.80;45.40
12156;DHT22;6141;49.092;8.516;2022-12-29T05:51:52;12.90;46.00
12156;DHT22;6141;49.092;8.516;2022-12-29T05:54:21;12.90;45.70
12156;DHT22;6141;49.092;8.516;2022-12-29T05:56:51;12.90;45.50
12156;DHT22;6141;49.092;8.516;2022-12-29T05:59:20;12.90;46.00
12156;DHT22;6141;49.092;8.516;2022-12-29T06:01:51;12.90;46.30
12156;DHT22;6141;49.092;8.516;2022-12-29T06:04:20;12.90;46.20
12156;DHT22;6141;49.092;8.516;2022-12-29T06:06:48;12.90;45.60
12156;DHT22;6141;49.092;8.516;2022-12-29T06:09:23;12.90;46.30
12156;DHT22;6141;49.092;8.516;2022-12-29T06:11:54;12.90;46.20
12156;DHT22;6141;49.092;8.516;2022-12-29T06:14:22;12.90;45.90
12156;DHT22;6141;49.092;8.516;2022-12-29T06:16:51;13.00;45.70
12156;DHT22;6141;49.092;8.516;2022-12-29T06:19:21;13.00;45.90
12156;DHT22;6141;49.092;8.516;2022-12-29T06:21:49;13.00;45.30
12156;DHT22;6141;49.092;8.516;2022-12-29T06:24:19;12.90;45.90
12156;DHT22;6141;49.092;8.516;2022-12-29T06:26:47;13.00;45.20
12156;DHT22;6141;49.092;8.516;2022-12-29T06:29:17;13.00;45.30
12156;DHT22;6141;49.092;8.516;2022-12-29T06:31:47;13.00;45.40
12156;DHT22;6141;49.092;8.516;2022-12-29T06:34:16;13.00;45.30
12156;DHT22;6141;49.092;8.516;2022-12-29T06:36:45;13.00;44.90
12156;DHT22;6141;49.092;8.516;2022-12-29T06:39:14;13.00;44.90
12156;DHT22;6141;49.092;8.516;2022-12-29T06:41:52;13.00;44.60
12156;DHT22;6141;49.092;8.516;2022-12-29T06:44:45;13.00;44.70
12156;DHT22;6141;49.092;8.516;2022-12-29T06:47:13;13.00;44.60
12156;DHT22;6141;49.092;8.516;2022-12-29T06:49:41;13.00;44.20
12156;DHT22;6141;49.092;8.516;2022-12-29T06:52:10;13.00;44.30
12156;DHT22;6141;49.092;8.516;2022-12-29T06:54:39;13.00;43.90
12156;DHT22;6141;49.092;8.516;2022-12-29T06:57:08;13.00;44.20
12156;DHT22;6141;49.092;8.516;2022-12-29T06:59:36;13.00;43.90
12156;DHT22;6141;49.092;8.516;2022-12-29T07:02:06;12.90;44.20
12156;DHT22;6141;49.092;8.516;2022-12-29T07:04:35;12.80;43.60
12156;DHT22;6141;49.092;8.516;2022-12-29T07:07:03;12.90;43.80
12156;DHT22;6141;49.092;8.516;2022-12-29T07:09:33;12.90;44.00
12156;DHT22;6141;49.092;8.516;2022-12-29T07:12:01;12.90;43.50
12156;DHT22;6141;49.092;8.516;2022-12-29T07:14:29;13.00;43.30
12156;DHT22;6141;49.092;8.516;2022-12-29T07:17:06;13.10;42.00
12156;DHT22;6141;49.092;8.516;2022-12-29T07:19:34;13.20;42.80
12156;DHT22;6141;49.092;8.516;2022-12-29T07:22:02;13.10;43.10
12156;DHT22;6141;49.092;8.516;2022-12-29T07:24:31;13.10;42.70
12156;DHT22;6141;49.092;8.516;2022-12-29T07:27:00;13.10;42.40
12156;DHT22;6141;49.092;8.516;2022-12-29T07:29:28;13.00;42.80
12156;DHT22;6141;49.092;8.516;2022-12-29T07:31:56;13.00;42.10
12156;DHT22;6141;49.092;8.516;2022-12-29T07:34:26;13.00;42.00
12156;DHT22;6141;49.092;8.516;2022-12-29T07:36:54;13.00;43.20
12156;DHT22;6141;49.092;8.516;2022-12-29T07:39:23;13.00;42.00
12156;DHT22;6141;49.092;8.516;2022-12-29T07:41:51;13.00;41.40
12156;DHT22;6141;49.092;8.516;2022-12-29T07:44:26;13.00;41.40
12156;DHT22;6141;49.092;8.516;2022-12-29T07:47:15;13.10;41.50
12156;DHT22;6141;49.092;8.516;2022-12-29T07:49:45;13.10;41.50
12156;DHT22;6141;49.092;8.516;2022-12-29T07:52:14;13.10;40.90
12156;DHT22;6141;49.092;8.516;2022-12-29T07:54:42;13.10;41.50
12156;DHT22;6141;49.092;8.516;2022-12-29T07:57:10;13.20;42.00
12156;DHT22;6141;49.092;8.516;2022-12-29T07:59:39;13.20;40.70
12156;DHT22;6141;49.092;8.516;2022-12-29T08:02:09;13.20;40.40
12156;DHT22;6141;49.092;8.516;2022-12-29T08:04:38;13.20;40.70
12156;DHT22;6141;49.092;8.516;2022-12-29T08:07:08;13.20;40.60
12156;DHT22;6141;49.092;8.516;2022-12-29T08:09:36;13.20;41.00
12156;DHT22;6141;49.092;8.516;2022-12-29T08:12:05;13.20;41.30
12156;DHT22;6141;49.092;8.516;2022-12-29T08:14:33;13.30;41.00
12156;DHT22;6141;49.092;8.516;2022-12-29T08:17:01;13.30;40.30
12156;DHT22;6141;49.092;8.516;2022-12-29T08:19:30;13.30;39.50
12156;DHT22;6141;49.092;8.516;2022-12-29T08:21:58;13.30;40.40
12156;DHT22;6141;49.092;8.516;2022-12-29T08:24:28;13.40;40.20
12156;DHT22;6141;49.092;8.516;2022-12-29T08:26:56;13.40;39.30
12156;DHT22;6141;49.092;8.516;2022-12-29T08:29:32;13.50;39.40
12156;DHT22;6141;49.092;8.516;2022-12-29T08:32:01;13.40;39.20
12156;DHT22;6141;49.092;8.516;2022-12-29T08:34:30;13.40;39.90
12156;DHT22;6141;49.092;8.516;2022-12-29T08:36:58;13.40;39.80
12156;DHT22;6141;49.092;8.516;2022-12-29T08:39:28;13.50;39.60
12156;DHT22;6141;49.092;8.516;2022-12-29T08:41:57;13.60;39.40
12156;DHT22;6141;49.092;8.516;2022-12-29T08:44:25;13.50;39.70
12156;DHT22;6141;49.092;8.516;2022-12-29T08:46:54;13.50;40.00
12156;DHT22;6141;49.092;8.516;2022-12-29T08:49:22;13.50;39.80
12156;DHT22;6141;49.092;8.516;2022-12-29T08:51:50;13.50;40.30
12156;DHT22;6141;49.092;8.516;2022-12-29T08:54:19;13.50;39.40
12156;DHT22;6141;49.092;8.516;2022-12-29T08:56:48;13.60;39.60
12156;DHT22;6141;49.092;8.516;2022-12-29T08:59:18;13.70;39.30
12156;DHT22;6141;49.092;8.516;2022-12-29T09:01:48;13.70;39.20
12156;DHT22;6141;49.092;8.516;2022-12-29T09:04:16;13.60;39.30
12156;DHT22;6141;49.092;8.516;2022-12-29T09:06:45;13.50;39.90
12156;DHT22;6141;49.092;8.516;2022-12-29T09:09:13;13.50;39.70
12156;DHT22;6141;49.092;8.516;2022-12-29T09:11:42;13.50;40.30
12156;DHT22;6141;49.092;8.516;2022-12-29T09:14:11;13.50;40.40
12156;DHT22;6141;49.092;8.516;2022-12-29T09:16:40;13.60;39.70
12156;DHT22;6141;49.092;8.516;2022-12-29T09:19:26;13.60;40.30
12156;DHT22;6141;49.092;8.516;2022-12-29T09:21:54;13.70;40.60
12156;DHT22;6141;49.092;8.516;2022-12-29T09:24:23;13.70;39.80
12156;DHT22;6141;49.092;8.516;2022-12-29T09:26:51;13.70;40.60
12156;DHT22;6141;49.092;8.516;2022-12-29T09:29:21;13.70;40.20
12156;DHT22;6141;49.092;8.516;2022-12-29T09:31:50;13.70;40.40
12156;DHT22;6141;49.092;8.516;2022-12-29T09:34:18;13.60;40.00
12156;DHT22;6141;49.092;8.516;2022-12-29T09:36:47;13.70;41.20
12156;DHT22;6141;49.092;8.516;2022-12-29T09:39:15;13.70;40.60
12156;DHT22;6141;49.092;8.516;2022-12-29T09:41:48;13.70;40.80
12156;DHT22;6141;49.092;8.516;2022-12-29T09:44:23;13.70;41.00
12156;DHT22;6141;49.092;8.516;2022-12-29T09:46:54;13.80;41.20
12156;DHT22;6141;49.092;8.516;2022-12-29T09:49:28;13.70;41.50
12156;DHT22;6141;49.092;8.516;2022-12-29T09:52:03;13.90;41.70
12156;DHT22;6141;49.092;8.516;2022-12-29T09:54:42;13.80;41.60
12156;DHT22;6141;49.092;8.516;2022-12-29T09:57:27;13.90;41.90
12156;DHT22;6141;49.092;8.516;2022-12-29T10:00:02;13.80;42.20
12156;DHT22;6141;49.092;8.516;2022-12-29T10:02:39;13.80;42.20
12156;DHT22;6141;49.092;8.516;2022-12-29T10:05:32;13.80;42.20
12156;DHT22;6141;49.092;8.516;2022-12-29T10:08:21;13.90;42.30
12156;DHT22;6141;49.092;8.516;2022-12-29T10:10:56;13.90;43.10
12156;DHT22;6141;49.092;8.516;2022-12-29T10:13:31;13.90;43.50
12156;DHT22;6141;49.092;8.516;2022-12-29T10:16:09;13.90;43.50
12156;DHT22;6141;49.092;8.516;2022-12-29T10:21:51;13.80;44.70
12156;DHT22;6141;49.092;8.516;2022-12-29T10:24:23;13.80;45.40
12156;DHT22;6141;49.092;8.516;2022-12-29T10:26:55;13.70;47.20
12156;DHT22;6141;49.092;8.516;2022-12-29T10:29:29;13.80;47.30
12156;DHT22;6141;49.092;8.516;2022-12-29T10:32:04;13.80;46.70
12156;DHT22;6141;49.092;8.516;2022-12-29T10:34:37;13.80;46.90
12156;DHT22;6141;49.092;8.516;2022-12-29T10:37:12;13.70;47.50
12156;DHT22;6141;49.092;8.516;2022-12-29T10:39:45;13.60;48.20
12156;DHT22;6141;49.092;8.516;2022-12-29T10:42:20;13.50;48.90
12156;DHT22;6141;49.092;8.516;2022-12-29T10:44:50;13.50;49.00
12156;DHT22;6141;49.092;8.516;2022-12-29T10:47:25;13.50;49.00
12156;DHT22;6141;49.092;8.516;2022-12-29T10:49:54;13.60;50.70
12156;DHT22;6141;49.092;8.516;2022-12-29T10:52:27;13.60;50.50
12156;DHT22;6141;49.092;8.516;2022-12-29T10:54:58;13.70;50.60
12156;DHT22;6141;49.092;8.516;2022-12-29T10:57:32;13.70;50.90
12156;DHT22;6141;49.092;8.516;2022-12-29T11:00:05;13.60;51.80
12156;DHT22;6141;49.092;8.516;2022-12-29T11:03:07;13.60;52.40
12156;DHT22;6141;49.092;8.516;2022-12-29T11:05:44;13.80;50.80
12156;DHT22;6141;49.092;8.516;2022-12-29T11:08:16;13.70;51.40
12156;DHT22;6141;49.092;8.516;2022-12-29T11:10:46;13.80;51.30
12156;DHT22;6141;49.092;8.516;2022-12-29T11:13:26;13.80;50.90
12156;DHT22;6141;49.092;8.516;2022-12-29T11:16:04;13.90;51.00
12156;DHT22;6141;49.092;8.516;2022-12-29T11:18:36;14.10;50.00
12156;DHT22;6141;49.092;8.516;2022-12-29T11:21:10;14.20;48.90
12156;DHT22;6141;49.092;8.516;2022-12-29T11:23:56;14.20;48.90
12156;DHT22;6141;49.092;8.516;2022-12-29T11:26:25;14.10;48.70
12156;DHT22;6141;49.092;8.516;2022-12-29T11:29:23;13.90;48.80
12156;DHT22;6141;49.092;8.516;2022-12-29T11:31:53;13.90;48.60
12156;DHT22;6141;49.092;8.516;2022-12-29T11:34:25;13.90;48.60
12156;DHT22;6141;49.092;8.516;2022-12-29T11:36:59;14.00;48.70
12156;DHT22;6141;49.092;8.516;2022-12-29T11:39:39;14.10;48.70
12156;DHT22;6141;49.092;8.516;2022-12-29T11:42:15;14.20;47.90
12156;DHT22;6141;49.092;8.516;2022-12-29T11:44:46;14.30;47.40
12156;DHT22;6141;49.092;8.516;2022-12-29T11:47:25;14.40;46.80
12156;DHT22;6141;49.092;8.516;2022-12-29T11:49:58;14.40;46.60
12156;DHT22;6141;49.092;8.516;2022-12-29T11:52:31;14.30;46.10
12156;DHT22;6141;49.092;8.516;2022-12-29T11:55:04;14.30;45.70
12156;DHT22;6141;49.092;8.516;2022-12-29T11:57:34;14.30;46.10
12156;DHT22;6141;49.092;8.516;2022-12-29T12:00:15;14.30;45.60
12156;DHT22;6141;49.092;8.516;2022-12-29T12:02:53;14.20;46.00
12156;DHT22;6141;49.092;8.516;2022-12-29T12:05:31;14.30;45.30
12156;DHT22;6141;49.092;8.516;2022-12-29T12:08:08;14.30;44.70
12156;DHT22;6141;49.092;8.516;2022-12-29T12:10:48;14.20;44.30
12156;DHT22;6141;49.092;8.516;2022-12-29T12:13:22;14.10;45.00
12156;DHT22;6141;49.092;8.516;2022-12-29T12:15:56;14.10;45.10
12156;DHT22;6141;49.092;8.516;2022-12-29T12:18:45;14.00;44.70
12156;DHT22;6141;49.092;8.516;2022-12-29T12:21:27;14.00;45.10
12156;DHT22;6141;49.092;8.516;2022-12-29T12:24:15;14.00;45.60
12156;DHT22;6141;49.092;8.516;2022-12-29T12:26:58;14.00;45.80
12156;DHT22;6141;49.092;8.516;2022-12-29T12:29:35;14.00;45.00
12156;DHT22;6141;49.092;8.516;2022-12-29T12:32:12;13.90;44.60
12156;DHT22;6141;49.092;8.516;2022-12-29T12:34:43;13.90;45.10
12156;DHT22;6141;49.092;8.516;2022-12-29T12:37:30;13.90;44.70
12156;DHT22;6141;49.092;8.516;2022-12-29T12:43:19;13.90;44.00
12156;DHT22;6141;49.092;8.516;2022-12-29T12:45:59;13.90;44.80
12156;DHT22;6141;49.092;8.516;2022-12-29T12:48:44;13.90;44.80
12156;DHT22;6141;49.092;8.516;2022-12-29T12:51:19;13.80;45.60
12156;DHT22;6141;49.092;8.516;2022-12-29T12:54:03;13.80;45.50
12156;DHT22;6141;49.092;8.516;2022-12-29T12:56:43;13.80;45.50
12156;DHT22;6141;49.092;8.516;2022-12-29T12:59:27;13.90;45.00
12156;DHT22;6141;49.092;8.516;2022-12-29T13:02:03;13.80;45.40
12156;DHT22;6141;49.092;8.516;2022-12-29T13:04:49;13.90;45.70
12156;DHT22;6141;49.092;8.516;2022-12-29T13:07:30;14.00;46.70
12156;DHT22;6141;49.092;8.516;2022-12-29T13:10:22;13.90;45.90
12156;DHT22;6141;49.092;8.516;2022-12-29T13:13:00;13.90;46.10
12156;DHT22;6141;49.092;8.516;2022-12-29T13:15:41;13.90;46.30
12156;DHT22;6141;49.092;8.516;2022-12-29T13:18:23;14.10;46.60
12156;DHT22;6141;49.092;8.516;2022-12-29T13:21:04;14.20;46.20
12156;DHT22;6141;49.092;8.516;2022-12-29T13:23:37;14.30;45.80
12156;DHT22;6141;49.092;8.516;2022-12-29T13:26:28;14.20;44.90
12156;DHT22;6141;49.092;8.516;2022-12-29T13:29:05;14.20;45.10
12156;DHT22;6141;49.092;8.516;2022-12-29T13:31:42;14.10;45.50
12156;DHT22;6141;49.092;8.516;2022-12-29T13:34:21;14.20;45.90
12156;DHT22;6141;49.092;8.516;2022-12-29T13:36:54;14.20;45.70
12156;DHT22;6141;49.092;8.516;2022-12-29T13:39:27;14.30;44.60
12156;DHT22;6141;49.092;8.516;2022-12-29T13:42:02;14.20;45.00
12156;DHT22;6141;49.092;8.516;2022-12-29T13:44:34;14.00;45.80
12156;DHT22;6141;49.092;8.516;2022-12-29T13:47:08;13.90;47.00
12156;DHT22;6141;49.092;8.516;2022-12-29T13:49:41;13.70;48.40
12156;DHT22;6141;49.092;8.516;2022-12-29T13:52:15;13.60;50.20
12156;DHT22;6141;49.092;8.516;2022-12-29T13:54:55;13.50;52.00
12156;DHT22;6141;49.092;8.516;2022-12-29T13:57:35;13.30;52.20
12156;DHT22;6141;49.092;8.516;2022-12-29T14:00:13;13.20;52.10
12156;DHT22;6141;49.092;8.516;2022-12-29T14:03:03;13.10;52.80
12156;DHT22;6141;49.092;8.516;2022-12-29T14:05:34;13.20;53.40
12156;DHT22;6141;49.092;8.516;2022-12-29T14:08:05;13.20;52.40
12156;DHT22;6141;49.092;8.516;2022-12-29T14:10:48;13.20;52.50
12156;DHT22;6141;49.092;8.516;2022-12-29T14:13:20;13.10;53.80
12156;DHT22;6141;49.092;8.516;2022-12-29T14:15:53;12.90;56.60
12156;DHT22;6141;49.092;8.516;2022-12-29T14:18:26;12.70;59.50
12156;DHT22;6141;49.092;8.516;2022-12-29T14:20:57;12.40;62.40
12156;DHT22;6141;49.092;8.516;2022-12-29T14:23:35;12.30;66.70
12156;DHT22;6141;49.092;8.516;2022-12-29T14:26:13;12.30;68.10
12156;DHT22;6141;49.092;8.516;2022-12-29T14:28:45;12.30;69.00
12156;DHT22;6141;49.092;8.516;2022-12-29T14:31:33;12.20;72.30
12156;DHT22;6141;49.092;8.516;2022-12-29T14:34:39;12.20;73.10
12156;DHT22;6141;49.092;8.516;2022-12-29T14:37:23;12.10;74.70
12156;DHT22;6141;49.092;8.516;2022-12-29T14:40:04;12.20;74.90
12156;DHT22;6141;49.092;8.516;2022-12-29T14:42:38;12.10;73.90
12156;DHT22;6141;49.092;8.516;2022-12-29T14:45:30;12.00;73.50
12156;DHT22;6141;49.092;8.516;2022-12-29T14:48:36;11.90;73.90
12156;DHT22;6141;49.092;8.516;2022-12-29T14:51:31;12.00;74.80
12156;DHT22;6141;49.092;8.516;2022-12-29T14:54:00;12.20;73.70
12156;DHT22;6141;49.092;8.516;2022-12-29T14:56:50;12.00;74.60
12156;DHT22;6141;49.092;8.516;2022-12-29T14:59:20;11.80;75.90
12156;DHT22;6141;49.092;8.516;2022-12-29T15:01:53;11.80;76.70
12156;DHT22;6141;49.092;8.516;2022-12-29T15:04:27;11.90;76.20
12156;DHT22;6141;49.092;8.516;2022-12-29T15:06:59;12.00;75.20
12156;DHT22;6141;49.092;8.516;2022-12-29T15:09:34;12.00;74.70
12156;DHT22;6141;49.092;8.516;2022-12-29T15:12:19;12.10;74.20
12156;DHT22;6141;49.092;8.516;2022-12-29T15:14:51;12.00;74.50
12156;DHT22;6141;49.092;8.516;2022-12-29T15:17:26;11.90;74.50
12156;DHT22;6141;49.092;8.516;2022-12-29T15:19:56;11.90;75.50
12156;DHT22;6141;49.092;8.516;2022-12-29T15:22:25;11.80;76.30
12156;DHT22;6141;49.092;8.516;2022-12-29T15:25:25;11.80;76.20
12156;DHT22;6141;49.092;8.516;2022-12-29T15:32:25;11.90;76.40
12156;DHT22;6141;49.092;8.516;2022-12-29T15:39:38;11.70;77.90
12156;DHT22;6141;49.092;8.516;2022-12-29T15:43:31;11.50;79.50
12156;DHT22;6141;49.092;8.516;2022-12-29T15:51:25;11.40;81.70
12156;DHT22;6141;49.092;8.516;2022-12-29T15:56:28;11.60;79.40
12156;DHT22;6141;49.092;8.516;2022-12-29T15:59:53;11.70;77.90
12156;DHT22;6141;49.092;8.516;2022-12-29T16:02:41;11.80;78.00
12156;DHT22;6141;49.092;8.516;2022-12-29T16:05:16;11.80;78.00
12156;DHT22;6141;49.092;8.516;2022-12-29T16:07:56;11.90;77.90
12156;DHT22;6141;49.092;8.516;2022-12-29T16:10:32;11.90;77.60
12156;DHT22;6141;49.092;8.516;2022-12-29T16:13:15;11.90;77.50
12156;DHT22;6141;49.092;8.516;2022-12-29T16:15:48;12.00;76.60
12156;DHT22;6141;49.092;8.516;2022-12-29T16:18:23;12.00;75.90
12156;DHT22;6141;49.092;8.516;2022-12-29T16:21:22;12.10;75.80
12156;DHT22;6141;49.092;8.516;2022-12-29T16:26:36;12.20;75.20
12156;DHT22;6141;49.092;8.516;2022-12-29T16:40:32;12.10;74.60
12156;DHT22;6141;49.092;8.516;2022-12-29T16:43:03;12.00;75.20
12156;DHT22;6141;49.092;8.516;2022-12-29T16:46:17;11.90;75.30
12156;DHT22;6141;49.092;8.516;2022-12-29T16:48:49;12.00;75.10
12156;DHT22;6141;49.092;8.516;2022-12-29T16:51:37;11.90;75.20
12156;DHT22;6141;49.092;8.516;2022-12-29T16:54:20;12.00;75.50
12156;DHT22;6141;49.092;8.516;2022-12-29T16:57:26;12.00;74.80
12156;DHT22;6141;49.092;8.516;2022-12-29T17:06:14;12.30;73.30
12156;DHT22;6141;49.092;8.516;2022-12-29T17:08:45;12.50;72.20
12156;DHT22;6141;49.092;8.516;2022-12-29T17:11:21;12.60;72.00
12156;DHT22;6141;49.092;8.516;2022-12-29T17:17:21;12.70;71.20
12156;DHT22;6141;49.092;8.516;2022-12-29T17:19:52;12.70;71.40
12156;DHT22;6141;49.092;8.516;2022-12-29T17:22:24;12.70;70.80
12156;DHT22;6141;49.092;8.516;2022-12-29T17:24:54;12.70;71.20
12156;DHT22;6141;49.092;8.516;2022-12-29T17:27:35;12.70;70.60
12156;DHT22;6141;49.092;8.516;2022-12-29T17:30:10;12.70;70.70